Terminal Aerodrome Forecast
Issued by NWS

Home | Current Version | Previous Version | Text Only | Print | Product List | Glossary Off
Versions: 1 2 3 4 5 6 7 8 9 10 11 12 13 14 15 16

000
FTUS43 KGRB 282324
TAFATW
TAF
KATW 282324Z 2900/2924 08009KT P6SM VCSH OVC035
      TEMPO 2900/2904 BKN030
     FM290700 04004KT P6SM VCSH OVC040
     FM290800 VRB03KT P6SM OVC045
     FM291700 05007KT P6SM BKN045
     FM291900 05007KT P6SM SCT050=

USA.gov is the U.S. government's official web portal to all federal, state and local government web resources and services.